Time;durP1;ratioP1;P1;durP2;ratioP2;P2;SDS_P1;SDS_P2;PMS_P1;PMS_P2;Temp;Humidity;BMP_temperature;BMP_pressure;BME280_temperature;BME280_humidity;BME280_pressure;Samples;Min_cycle;Max_cycle;Signal;HPM_P1;HPM_P2
2022/12/25 00:01:41;;;;;;;12.48;1.95;;;10.70;99.90;;;;;;5095084;28;20192;-73
2022/12/25 00:04:09;;;;;;;11.23;1.95;;;10.70;99.90;;;;;;5076294;28;20063;-75
2022/12/25 00:06:36;;;;;;;10.35;2.08;;;10.70;99.90;;;;;;5077221;28;20055;-74
2022/12/25 00:09:04;;;;;;;8.63;2.10;;;10.70;99.90;;;;;;5077208;28;20373;-73
2022/12/25 00:11:31;;;;;;;10.45;1.98;;;10.70;99.90;;;;;;5093750;28;20047;-75
2022/12/25 00:13:59;;;;;;;12.07;1.88;;;10.70;99.90;;;;;;5095076;28;20048;-75
2022/12/25 00:16:26;;;;;;;10.48;1.98;;;10.70;99.90;;;;;;5077454;28;20055;-75
2022/12/25 00:18:57;;;;;;;15.40;2.08;;;10.70;99.90;;;;;;5093731;28;20048;-73
2022/12/25 00:21:25;;;;;;;9.60;1.70;;;10.70;99.90;;;;;;5094737;28;20055;-73
2022/12/25 00:23:55;;;;;;;14.10;2.38;;;10.70;99.90;;;;;;5076840;28;20036;-76
2022/12/25 00:26:23;;;;;;;14.18;2.45;;;10.70;99.90;;;;;;5077582;28;20495;-74
2022/12/25 00:28:55;;;;;;;11.68;2.50;;;10.70;99.90;;;;;;5094648;28;20051;-75
2022/12/25 00:31:23;;;;;;;14.57;2.42;;;10.90;99.90;;;;;;5076070;28;20044;-73
2022/12/25 00:33:52;;;;;;;10.02;1.95;;;10.70;99.90;;;;;;5060246;28;20047;-74
2022/12/25 00:36:20;;;;;;;;;;;10.70;99.90;;;;;;5095304;28;20040;-75
2022/12/25 00:38:48;;;;;;;12.57;2.00;;;10.70;99.90;;;;;;5075990;28;20256;-73
2022/12/25 00:42:17;;;;;;;16.52;2.47;;;10.70;99.90;;;;;;5094610;28;20115;-72
2022/12/25 00:44:12;;;;;;;10.63;2.00;;;10.70;99.90;;;;;;5075758;28;20040;-73
2022/12/25 00:46:41;;;;;;;14.73;1.90;;;10.60;99.90;;;;;;5077095;28;20063;-74
2022/12/25 00:49:10;;;;;;;10.32;2.05;;;10.60;99.90;;;;;;5094456;28;20475;-75
2022/12/25 00:51:37;;;;;;;10.68;2.08;;;10.80;99.90;;;;;;5093235;28;20044;-73
2022/12/25 00:54:05;;;;;;;8.15;1.83;;;10.50;99.90;;;;;;5094622;28;20457;-72
2022/12/25 00:56:33;;;;;;;7.88;2.00;;;10.50;99.90;;;;;;5043506;28;20107;-74
2022/12/25 00:59:00;;;;;;;10.15;1.92;;;10.40;99.90;;;;;;5093286;28;20364;-74
2022/12/25 01:01:28;;;;;;;7.40;1.42;;;10.70;99.90;;;;;;5077051;28;20495;-73
2022/12/25 01:03:55;;;;;;;10.00;1.85;;;10.30;99.90;;;;;;5093341;28;20091;-75
2022/12/25 01:06:23;;;;;;;7.35;1.65;;;10.90;99.90;;;;;;5077103;28;20407;-73
2022/12/25 01:11:37;;;;;;;9.80;1.73;;;10.30;99.90;;;;;;5075391;28;20048;-76
2022/12/25 01:14:05;;;;;;;10.27;2.30;;;10.30;99.90;;;;;;5095497;28;20470;-74
2022/12/25 01:16:32;;;;;;;9.73;1.60;;;10.30;99.90;;;;;;5098294;28;20044;-73
2022/12/25 01:19:00;;;;;;;13.30;2.35;;;10.50;99.90;;;;;;5079273;28;20283;-73
2022/12/25 01:21:28;;;;;;;11.52;1.88;;;10.40;99.90;;;;;;5080718;28;20460;-75
2022/12/25 01:23:55;;;;;;;13.45;2.00;;;10.40;99.90;;;;;;5096942;28;20062;-73
2022/12/25 01:26:25;;;;;;;8.93;1.75;;;10.70;99.90;;;;;;5098185;28;20388;-75
2022/12/25 01:28:53;;;;;;;8.63;1.83;;;10.40;99.90;;;;;;5097907;28;20048;-74
2022/12/25 01:31:22;;;;;;;6.22;1.63;;;10.40;99.90;;;;;;5096819;28;20052;-76
2022/12/25 01:33:50;;;;;;;10.43;1.80;;;10.40;99.90;;;;;;5097921;28;20040;-74
2022/12/25 01:36:23;;;;;;;12.45;1.88;;;10.40;99.90;;;;;;5098013;28;20047;-74
2022/12/25 01:38:52;;;;;;;11.82;1.75;;;10.40;99.90;;;;;;5079071;28;20044;-75
2022/12/25 01:41:22;;;;;;;10.32;1.90;;;10.30;99.90;;;;;;5080129;28;20060;-74
2022/12/25 01:44:04;;;;;;;16.63;2.08;;;10.30;99.90;;;;;;5079013;28;20048;-73
2022/12/25 01:46:32;;;;;;;9.35;1.92;;;10.30;99.90;;;;;;5097694;28;20048;-74
2022/12/25 01:49:11;;;;;;;11.38;2.03;;;10.80;99.90;;;;;;5080179;28;20048;-75
2022/12/25 01:51:46;;;;;;;10.27;1.90;;;10.20;99.90;;;;;;5078792;28;20052;-75
2022/12/25 01:54:22;;;;;;;14.30;2.03;;;10.30;99.90;;;;;;5080082;28;20048;-74
2022/12/25 01:56:53;;;;;;;8.77;1.73;;;10.20;99.90;;;;;;5045506;28;20055;-74
2022/12/25 01:59:24;;;;;;;13.45;1.88;;;10.40;99.90;;;;;;5097759;28;20040;-73
2022/12/25 02:01:51;;;;;;;12.25;1.85;;;10.00;99.90;;;;;;5097101;28;20040;-72
2022/12/25 02:04:40;;;;;;;15.40;2.30;;;9.90;99.90;;;;;;5096158;28;20059;-72
2022/12/25 02:07:14;;;;;;;;;;;9.80;99.90;;;;;;5097672;28;20059;-73
2022/12/25 02:09:44;;;;;;;9.38;2.05;;;9.70;99.90;;;;;;5097160;28;19930;-75
2022/12/25 02:12:20;;;;;;;14.23;2.33;;;9.80;99.90;;;;;;5078234;28;20052;-77
2022/12/25 02:14:49;;;;;;;19.23;2.80;;;9.60;99.90;;;;;;5097321;28;20063;-75
2022/12/25 02:17:21;;;;;;;17.80;2.55;;;9.40;99.90;;;;;;5096157;28;20055;-75
2022/12/25 02:20:10;;;;;;;14.75;2.40;;;10.00;99.90;;;;;;5096872;28;20040;-76
2022/12/25 02:23:07;;;;;;;14.77;2.70;;;9.50;99.90;;;;;;5097230;28;20052;-75
2022/12/25 02:25:42;;;;;;;;;;;9.50;99.90;;;;;;5077505;28;20048;-74
2022/12/25 02:28:13;;;;;;;15.98;2.80;;;9.50;99.90;;;;;;5079277;28;19970;-75
2022/12/25 02:30:45;;;;;;;15.02;2.50;;;9.40;99.90;;;;;;5078752;28;20404;-76
2022/12/25 02:36:12;;;;;;;17.58;2.70;;;9.40;99.90;;;;;;5079165;28;20044;-75
2022/12/25 02:39:56;;;;;;;18.08;2.50;;;9.40;99.90;;;;;;5077704;28;20036;-73
2022/12/25 02:41:34;;;;;;;18.02;2.92;;;9.30;99.90;;;;;;5096623;28;20044;-74
2022/12/25 03:07:16;;;;;;;22.90;3.05;;;9.30;99.90;;;;;;5078337;28;20056;-74
2022/12/25 03:12:52;;;;;;;17.13;2.58;;;9.50;99.90;;;;;;5096047;28;20056;-76
2022/12/25 03:18:14;;;;;;;16.75;2.47;;;9.70;99.90;;;;;;5094424;28;20041;-74
2022/12/25 03:29:05;;;;;;;13.30;2.28;;;10.00;99.90;;;;;;5095874;28;20372;-74
2022/12/25 03:31:50;;;;;;;23.30;3.00;;;10.40;99.90;;;;;;5094564;28;20071;-74
2022/12/25 04:37:14;;;;;;;12.90;1.92;;;10.30;99.90;;;;;;5093743;28;20040;-75
2022/12/25 04:39:42;;;;;;;16.52;2.70;;;10.30;99.90;;;;;;5095028;28;20115;-76
2022/12/25 04:42:09;;;;;;;13.30;2.40;;;10.40;99.90;;;;;;5077012;28;20051;-75
2022/12/25 04:44:37;;;;;;;23.52;2.90;;;10.90;99.90;;;;;;5093594;28;20048;-73
2022/12/25 04:47:04;;;;;;;14.45;2.67;;;10.40;99.90;;;;;;5077066;28;20115;-75
2022/12/25 04:49:38;;;;;;;12.82;2.72;;;10.40;99.90;;;;;;5096773;28;20472;-73
2022/12/25 04:52:05;;;;;;;15.50;2.45;;;11.10;99.90;;;;;;5097521;28;20059;-75
2022/12/25 04:54:33;;;;;;;19.25;2.90;;;10.40;99.90;;;;;;5099057;28;20473;-72
2022/12/25 04:57:00;;;;;;;16.33;2.50;;;10.40;99.90;;;;;;5097984;28;20487;-73
2022/12/25 04:59:28;;;;;;;15.23;2.60;;;10.40;99.90;;;;;;5080802;28;20052;-75
2022/12/25 05:01:55;;;;;;;14.60;2.60;;;10.40;99.90;;;;;;5081011;28;20055;-75
2022/12/25 05:04:23;;;;;;;12.27;2.47;;;10.40;99.90;;;;;;5079532;28;20044;-75
2022/12/25 05:06:51;;;;;;;13.93;2.42;;;10.40;99.90;;;;;;5080805;28;20048;-74
2022/12/25 05:09:18;;;;;;;22.08;2.60;;;10.40;99.90;;;;;;5080941;28;20044;-75
2022/12/25 05:11:46;;;;;;;18.15;3.05;;;10.40;99.90;;;;;;5097541;28;20048;-73
2022/12/25 05:14:13;;;;;;;16.67;3.17;;;10.40;99.90;;;;;;5098484;28;20044;-75
2022/12/25 05:16:41;;;;;;;18.35;2.63;;;10.40;99.90;;;;;;5079691;28;20472;-73
2022/12/25 05:19:09;;;;;;;13.98;2.70;;;10.30;99.90;;;;;;5080304;28;20048;-72
2022/12/25 05:21:36;;;;;;;16.75;2.58;;;10.30;99.90;;;;;;5098297;28;20445;-73
2022/12/25 05:24:04;;;;;;;14.88;2.47;;;10.30;99.90;;;;;;5097538;28;20056;-76
2022/12/25 05:26:31;;;;;;;21.73;2.53;;;10.30;99.90;;;;;;5080577;28;20044;-72
2022/12/25 05:28:59;;;;;;;11.90;2.30;;;10.30;99.90;;;;;;5080396;28;20056;-74
2022/12/25 05:31:26;;;;;;;24.33;2.78;;;10.30;99.90;;;;;;5096849;28;20044;-73
2022/12/25 05:33:54;;;;;;;22.75;2.45;;;10.40;99.90;;;;;;5080258;28;20047;-75
2022/12/25 05:36:22;;;;;;;18.45;2.25;;;10.40;99.90;;;;;;5098103;28;20040;-73
2022/12/25 05:38:49;;;;;;;16.00;2.08;;;10.30;99.90;;;;;;5079205;28;20051;-73
2022/12/25 05:41:17;;;;;;;18.50;2.15;;;11.20;99.90;;;;;;5097828;28;20468;-73
2022/12/25 05:43:45;;;;;;;15.65;2.17;;;10.30;99.90;;;;;;5078977;28;20059;-74
2022/12/25 05:46:13;;;;;;;15.23;2.17;;;10.30;99.90;;;;;;5097973;28;20040;-74
2022/12/25 05:48:40;;;;;;;16.83;2.45;;;10.70;99.90;;;;;;5080475;28;20280;-72
2022/12/25 05:51:10;;;;;;;14.32;2.63;;;10.30;99.90;;;;;;5096868;28;20368;-74
2022/12/25 05:53:38;;;;;;;15.55;2.25;;;10.90;99.90;;;;;;5098038;28;20210;-74
2022/12/25 05:56:06;;;;;;;;;;;10.30;99.90;;;;;;5098018;28;20044;-72
2022/12/25 05:58:36;;;;;;;17.58;2.30;;;10.40;99.90;;;;;;5078609;28;19919;-75
2022/12/25 06:01:16;;;;;;;14.73;2.40;;;10.40;99.90;;;;;;5097480;28;20040;-76
2022/12/25 06:03:44;;;;;;;18.30;2.53;;;10.40;99.90;;;;;;5078648;28;20044;-75
2022/12/25 06:06:13;;;;;;;17.65;2.13;;;10.40;99.90;;;;;;5097851;28;20364;-75
2022/12/25 06:08:41;;;;;;;22.85;2.75;;;10.60;99.90;;;;;;5097352;28;20048;-72
2022/12/25 06:11:08;;;;;;;;;;;10.40;99.90;;;;;;5078790;28;20044;-74
2022/12/25 06:13:36;;;;;;;22.23;2.60;;;10.50;99.90;;;;;;5079444;28;19920;-76
2022/12/25 06:16:09;;;;;;;21.40;2.85;;;10.40;99.90;;;;;;5079912;28;20365;-75
2022/12/25 06:18:39;;;;;;;17.80;2.50;;;10.30;99.90;;;;;;5095999;28;20036;-73
2022/12/25 06:21:08;;;;;;;21.30;2.78;;;10.40;99.90;;;;;;5062937;28;20048;-72
2022/12/25 06:23:37;;;;;;;21.65;2.58;;;10.30;99.90;;;;;;5095919;28;20047;-72
2022/12/25 06:26:11;;;;;;;20.02;2.88;;;10.30;99.90;;;;;;5097470;28;20044;-73
2022/12/25 06:28:39;;;;;;;18.65;2.80;;;10.30;99.90;;;;;;5079654;28;20048;-72
2022/12/25 06:31:08;;;;;;;12.38;2.35;;;10.30;99.90;;;;;;5095696;28;20039;-72
2022/12/25 06:33:36;;;;;;;16.95;2.50;;;10.30;99.90;;;;;;5079340;28;20048;-72
2022/12/25 06:36:06;;;;;;;15.90;2.63;;;11.10;99.90;;;;;;5062308;28;20048;-74
2022/12/25 06:38:34;;;;;;;18.20;2.78;;;10.20;99.90;;;;;;5095501;28;20052;-76
2022/12/25 06:41:07;;;;;;;22.65;3.28;;;10.20;99.90;;;;;;5079355;28;20368;-74
2022/12/25 06:43:34;;;;;;;20.63;3.13;;;10.70;99.90;;;;;;5077804;28;20040;-72
2022/12/25 06:46:04;;;;;;;25.13;3.13;;;11.10;99.90;;;;;;5062261;28;20051;-74
2022/12/25 06:48:33;;;;;;;15.70;2.83;;;10.20;99.90;;;;;;5078907;28;20048;-75
2022/12/25 06:51:02;;;;;;;22.05;2.92;;;10.30;99.90;;;;;;5060994;28;20052;-73
2022/12/25 06:53:29;;;;;;;24.55;2.97;;;10.20;99.90;;;;;;5078763;28;20071;-74
2022/12/25 06:56:08;;;;;;;25.95;3.38;;;10.20;99.90;;;;;;5063566;28;20106;-72
2022/12/25 06:58:36;;;;;;;13.77;2.78;;;10.10;99.90;;;;;;5095549;28;20045;-74
2022/12/25 07:01:13;;;;;;;19.13;3.17;;;10.10;99.90;;;;;;5062047;28;20056;-73
2022/12/25 07:03:44;;;;;;;23.02;3.47;;;10.10;99.90;;;;;;5095472;28;20044;-74
2022/12/25 07:06:11;;;;;;;22.67;3.08;;;10.30;99.90;;;;;;5078999;28;20048;-75
2022/12/25 07:08:39;;;;;;;19.23;3.25;;;10.10;99.90;;;;;;5078867;28;20050;-76
2022/12/25 07:11:07;;;;;;;24.45;3.25;;;11.20;99.90;;;;;;5060401;28;20423;-72
2022/12/25 07:13:35;;;;;;;23.13;3.30;;;10.10;99.90;;;;;;5095702;28;20048;-75
2022/12/25 07:16:04;;;;;;;18.65;2.72;;;10.10;99.90;;;;;;5062195;28;20040;-75
2022/12/25 07:18:32;;;;;;;13.93;2.75;;;10.10;99.90;;;;;;5094827;28;20376;-75
2022/12/25 07:21:09;;;;;;;19.48;3.20;;;10.20;99.90;;;;;;5095785;28;20484;-75
2022/12/25 07:23:36;;;;;;;23.40;3.67;;;10.10;99.90;;;;;;5094814;28;20701;-75
2022/12/25 07:26:04;;;;;;;19.38;3.22;;;10.50;99.90;;;;;;5095899;28;20044;-74
2022/12/25 07:28:32;;;;;;;21.23;3.45;;;10.10;99.90;;;;;;5077807;28;20079;-75
2022/12/25 07:31:03;;;;;;;23.00;3.35;;;10.10;99.90;;;;;;5077101;28;20052;-74
2022/12/25 07:33:30;;;;;;;17.48;3.20;;;10.10;99.90;;;;;;5095903;28;20040;-74
2022/12/25 07:35:59;;;;;;;15.32;2.85;;;10.30;99.90;;;;;;5077943;28;20036;-74
2022/12/25 07:38:27;;;;;;;20.90;3.10;;;10.10;99.90;;;;;;5094459;28;20047;-75
2022/12/25 07:40:54;;;;;;;18.20;3.25;;;10.20;99.90;;;;;;5077697;28;20048;-75
2022/12/25 07:43:22;;;;;;;21.08;3.20;;;10.10;99.90;;;;;;5076585;28;20067;-74
2022/12/25 07:45:54;;;;;;;14.07;2.40;;;10.10;99.90;;;;;;5095426;28;20056;-75
2022/12/25 07:48:22;;;;;;;18.80;2.85;;;10.90;99.90;;;;;;5077865;28;20052;-74
2022/12/25 07:50:55;;;;;;;18.60;2.75;;;10.30;99.90;;;;;;5094305;28;20067;-74
2022/12/25 07:53:23;;;;;;;19.38;2.42;;;10.30;99.90;;;;;;5095167;28;20122;-74
2022/12/25 07:55:59;;;;;;;18.23;2.50;;;10.20;99.90;;;;;;5060913;28;20384;-74
2022/12/25 07:58:27;;;;;;;20.75;3.13;;;10.20;99.90;;;;;;5094355;28;20048;-74
2022/12/25 08:01:00;;;;;;;17.67;2.42;;;10.30;99.90;;;;;;5077388;28;20460;-74
2022/12/25 08:03:28;;;;;;;18.55;3.00;;;10.50;99.90;;;;;;5059711;28;20346;-74
2022/12/25 08:06:00;;;;;;;16.48;2.88;;;10.30;99.90;;;;;;5094844;28;20056;-75
2022/12/25 08:08:28;;;;;;;18.30;2.67;;;10.60;99.90;;;;;;5077367;28;20055;-74
2022/12/25 08:10:55;;;;;;;21.60;2.60;;;11.00;99.90;;;;;;5094981;28;20066;-74
2022/12/25 08:13:23;;;;;;;17.70;2.70;;;10.30;99.90;;;;;;5096901;28;20050;-75
2022/12/25 08:15:56;;;;;;;14.82;2.38;;;10.30;99.90;;;;;;5097382;28;20375;-75
2022/12/25 08:18:24;;;;;;;9.35;2.28;;;10.30;99.90;;;;;;5114298;28;20051;-74
2022/12/25 08:21:02;;;;;;;14.27;2.75;;;10.30;99.90;;;;;;5115755;28;20040;-75
2022/12/25 08:23:30;;;;;;;21.80;2.83;;;10.80;99.90;;;;;;5113806;28;20040;-73
2022/12/25 08:26:01;;;;;;;18.02;2.50;;;10.30;99.90;;;;;;5096956;28;20051;-75
2022/12/25 08:28:33;;;;;;;13.93;2.45;;;10.30;99.90;;;;;;5111268;28;20040;-73
2022/12/25 08:31:22;;;;;;;21.00;3.42;;;10.40;99.90;;;;;;5083957;28;20043;-76
2022/12/25 08:33:52;;;;;;;15.70;2.72;;;10.40;99.90;;;;;;5102847;28;20058;-75
2022/12/25 08:36:20;;;;;;;13.02;2.95;;;10.40;99.90;;;;;;5087057;28;20044;-75
2022/12/25 08:38:48;;;;;;;15.80;2.50;;;10.40;99.90;;;;;;5070305;28;20059;-74
2022/12/25 08:41:16;;;;;;;21.13;2.63;;;10.40;99.90;;;;;;5082272;28;20048;-74
2022/12/25 08:43:44;;;;;;;14.82;3.38;;;10.40;99.90;;;;;;5076001;28;20040;-76
2022/12/25 08:46:12;;;;;;;15.63;2.53;;;10.50;99.90;;;;;;5077225;28;20044;-74
2022/12/25 08:48:45;;;;;;;14.63;2.15;;;10.60;99.90;;;;;;5094718;28;20055;-75
2022/12/25 08:51:16;;;;;;;15.77;2.50;;;10.50;99.90;;;;;;5093913;28;20048;-76
2022/12/25 08:53:45;;;;;;;18.80;2.92;;;10.80;99.90;;;;;;5076871;28;20389;-74
2022/12/25 08:56:13;;;;;;;14.27;2.10;;;10.90;99.90;;;;;;5093777;28;20476;-73
2022/12/25 08:58:42;;;;;;;;;;;10.60;99.90;;;;;;5076159;28;20055;-75
2022/12/25 09:01:10;;;;;;;15.70;2.65;;;10.50;99.90;;;;;;5072457;28;20035;-75
2022/12/25 09:03:37;;;;;;;18.40;2.50;;;10.50;99.90;;;;;;5073283;28;20052;-74
2022/12/25 09:06:08;;;;;;;13.63;2.20;;;10.60;99.90;;;;;;5073953;28;20053;-76
2022/12/25 09:08:37;;;;;;;19.60;2.35;;;10.50;99.90;;;;;;5056752;28;20060;-75
2022/12/25 09:11:14;;;;;;;14.60;2.28;;;10.50;99.90;;;;;;5075205;28;20043;-74
2022/12/25 09:13:42;;;;;;;17.50;2.42;;;10.80;99.90;;;;;;5094161;28;20059;-75
2022/12/25 09:16:13;;;;;;;14.40;2.15;;;10.50;99.90;;;;;;5076455;28;20047;-75
2022/12/25 09:18:40;;;;;;;13.77;2.55;;;10.60;99.90;;;;;;5093103;28;20044;-75
2022/12/25 09:21:12;;;;;;;13.30;2.58;;;10.60;99.90;;;;;;5076656;28;20043;-74
2022/12/25 09:23:41;;;;;;;14.65;2.85;;;10.90;99.90;;;;;;5093000;28;20044;-77
2022/12/25 09:26:11;;;;;;;9.60;1.83;;;10.70;99.90;;;;;;5076454;28;20472;-74
2022/12/25 09:28:39;;;;;;;19.00;2.60;;;10.60;99.90;;;;;;5093939;28;20048;-76
2022/12/25 09:31:14;;;;;;;15.65;3.13;;;10.70;99.90;;;;;;5076578;28;20048;-74
2022/12/25 09:33:42;;;;;;;13.98;2.75;;;10.60;99.90;;;;;;5059802;28;20052;-75
2022/12/25 09:36:10;;;;;;;21.35;3.15;;;10.50;99.90;;;;;;5078896;28;20449;-74
2022/12/25 09:38:38;;;;;;;19.17;2.80;;;10.60;99.90;;;;;;5096493;28;20040;-75
2022/12/25 09:41:50;;;;;;;11.07;2.80;;;11.30;99.90;;;;;;5097711;28;20376;-74
2022/12/25 09:44:21;;;;;;;12.98;2.60;;;10.70;99.90;;;;;;5078699;28;20044;-75
2022/12/25 09:47:03;;;;;;;13.82;2.25;;;10.70;99.90;;;;;;5097777;28;20055;-74
2022/12/25 09:49:34;;;;;;;18.95;2.58;;;10.70;99.90;;;;;;5080200;28;20075;-75
2022/12/25 09:52:11;;;;;;;17.58;2.67;;;10.70;99.90;;;;;;5078612;28;20044;-75
2022/12/25 09:54:53;;;;;;;15.23;2.88;;;10.70;99.90;;;;;;5063876;28;20040;-76
2022/12/25 09:57:23;;;;;;;12.50;2.47;;;10.70;99.90;;;;;;5078850;28;20048;-77
2022/12/25 09:59:52;;;;;;;15.43;2.30;;;10.90;99.90;;;;;;5097517;28;20048;-75
2022/12/25 10:02:47;;;;;;;18.10;2.40;;;10.80;99.90;;;;;;5111233;28;20384;-77
2022/12/25 10:05:20;;;;;;;14.55;2.00;;;10.80;99.90;;;;;;5098940;28;20035;-75
2022/12/25 10:08:00;;;;;;;10.63;2.13;;;10.90;99.90;;;;;;5100280;28;20035;-75
2022/12/25 10:10:49;;;;;;;12.70;2.25;;;10.90;99.90;;;;;;5098962;28;20036;-75
2022/12/25 10:13:33;;;;;;;17.10;2.40;;;10.90;99.90;;;;;;5117539;28;20039;-76
2022/12/25 10:16:17;;;;;;;14.85;2.50;;;10.90;99.90;;;;;;5083124;28;20051;-76
2022/12/25 10:19:14;;;;;;;12.55;2.20;;;11.00;99.90;;;;;;5116180;28;20043;-75
2022/12/25 10:21:43;;;;;;;11.98;1.98;;;11.00;99.90;;;;;;5083030;28;20059;-74
2022/12/25 10:24:40;;;;;;;13.63;2.10;;;11.00;99.90;;;;;;5116149;28;20035;-74
2022/12/25 10:27:22;;;;;;;9.60;2.20;;;11.00;99.90;;;;;;5117689;28;20059;-76
2022/12/25 10:29:55;;;;;;;12.95;1.95;;;11.10;99.90;;;;;;5099718;28;20059;-76
2022/12/25 10:32:22;;;;;;;13.52;2.00;;;11.20;99.90;;;;;;5099109;28;20055;-75
2022/12/25 10:34:50;;;;;;;13.95;1.95;;;11.20;99.90;;;;;;5099594;28;20052;-76
2022/12/25 10:37:17;;;;;;;9.82;2.08;;;11.20;99.90;;;;;;5081998;28;20047;-75
2022/12/25 10:39:45;;;;;;;12.63;1.95;;;11.30;99.90;;;;;;5099441;28;20373;-75
2022/12/25 10:42:29;;;;;;;12.38;2.15;;;11.30;99.90;;;;;;5117015;28;20058;-76
2022/12/25 10:45:08;;;;;;;13.57;1.92;;;11.30;99.90;;;;;;5098317;28;20043;-78
2022/12/25 10:47:41;;;;;;;7.65;1.83;;;11.30;99.90;;;;;;5116194;28;20055;-79
2022/12/25 10:50:21;;;;;;;10.70;1.80;;;11.30;99.90;;;;;;5116024;28;20058;-76
2022/12/25 10:53:19;;;;;;;10.25;2.00;;;11.40;99.90;;;;;;5082819;28;20376;-75
2022/12/25 10:56:15;;;;;;;12.18;2.13;;;11.40;99.90;;;;;;5113043;28;20052;-75
2022/12/25 10:58:42;;;;;;;11.18;2.00;;;11.40;99.90;;;;;;5113056;28;20059;-75
2022/12/25 11:01:11;;;;;;;10.43;1.83;;;11.50;99.90;;;;;;5098504;28;20058;-74
2022/12/25 11:03:43;;;;;;;11.45;2.17;;;11.50;99.90;;;;;;5104340;27;20050;-77
2022/12/25 11:06:29;;;;;;;12.02;2.00;;;11.50;99.90;;;;;;5111012;28;20052;-77
2022/12/25 11:09:00;;;;;;;12.75;2.20;;;11.50;99.90;;;;;;5082404;28;20048;-77
2022/12/25 11:11:29;;;;;;;11.18;2.00;;;11.60;99.90;;;;;;5096926;28;20047;-74
2022/12/25 11:14:00;;;;;;;16.77;2.33;;;11.60;99.90;;;;;;5097345;28;20055;-76
2022/12/25 11:16:30;;;;;;;12.52;2.20;;;11.60;99.90;;;;;;5115962;28;20039;-75
2022/12/25 11:18:58;;;;;;;11.32;2.50;;;11.60;99.90;;;;;;5115171;28;20058;-76
2022/12/25 11:21:32;;;;;;;12.63;2.50;;;11.70;99.90;;;;;;5116730;28;20040;-75
2022/12/25 11:24:18;;;;;;;9.80;2.00;;;11.60;99.90;;;;;;5115727;28;20040;-73
2022/12/25 11:26:51;;;;;;;12.77;2.72;;;11.70;99.90;;;;;;5098537;28;20341;-75
2022/12/25 11:29:59;;;;;;;11.20;2.17;;;11.70;99.90;;;;;;5098471;28;20047;-76
2022/12/25 11:32:28;;;;;;;;;;;11.80;99.90;;;;;;5014515;28;20065;-74
2022/12/25 11:34:57;;;;;;;10.07;2.20;;;11.90;99.90;;;;;;5014018;28;19921;-74
2022/12/25 11:37:37;;;;;;;7.95;2.08;;;12.00;99.90;;;;;;5049298;28;20376;-75
2022/12/25 11:40:13;;;;;;;8.30;1.75;;;12.10;99.90;;;;;;5081411;28;20051;-76
2022/12/25 11:42:47;;;;;;;8.68;2.20;;;12.10;99.90;;;;;;5098877;28;20052;-74
2022/12/25 11:45:19;;;;;;;12.75;2.22;;;12.20;99.90;;;;;;5097006;28;20054;-74
2022/12/25 11:47:57;;;;;;;12.93;2.13;;;12.10;99.90;;;;;;5115828;28;20044;-74
2022/12/25 11:50:39;;;;;;;8.02;2.00;;;12.20;99.90;;;;;;5114787;28;20055;-75
2022/12/25 11:53:42;;;;;;;9.10;1.70;;;12.10;99.90;;;;;;5116305;28;20047;-75
2022/12/25 11:56:30;;;;;;;11.20;1.90;;;12.10;99.90;;;;;;5115600;28;20468;-76
2022/12/25 11:59:12;;;;;;;13.85;1.75;;;12.20;99.90;;;;;;5096239;28;20050;-74
2022/12/25 12:02:02;;;;;;;9.60;1.63;;;12.10;99.90;;;;;;5115575;28;20468;-74
2022/12/25 12:04:42;;;;;;;6.30;1.40;;;12.10;99.90;;;;;;5096689;28;20460;-75
2022/12/25 12:07:29;;;;;;;10.63;1.63;;;12.10;99.90;;;;;;5115592;28;20050;-72
2022/12/25 12:10:15;;;;;;;6.88;1.60;;;12.10;99.90;;;;;;5098079;28;20048;-74
2022/12/25 12:12:46;;;;;;;9.98;1.77;;;12.10;99.90;;;;;;5097618;28;20051;-73
2022/12/25 12:15:28;;;;;;;14.68;2.17;;;11.90;99.90;;;;;;5115523;28;20039;-73
2022/12/25 12:18:22;;;;;;;10.80;1.40;;;12.00;99.90;;;;;;5114049;28;20039;-73
2022/12/25 12:21:06;;;;;;;8.48;1.50;;;12.00;99.90;;;;;;5097847;28;20067;-75
2022/12/25 12:23:46;;;;;;;8.57;1.30;;;11.90;99.90;;;;;;5114265;28;20043;-74
2022/12/25 12:26:28;;;;;;;6.97;1.13;;;11.80;99.90;;;;;;5115341;28;20113;-74
2022/12/25 12:29:02;;;;;;;6.38;1.30;;;11.70;99.90;;;;;;5115092;28;20039;-75
2022/12/25 12:31:47;;;;;;;7.85;1.30;;;11.90;99.90;;;;;;5079842;28;20051;-74
2022/12/25 12:34:22;;;;;;;4.38;0.70;;;11.60;99.90;;;;;;5096205;28;20059;-73
2022/12/25 12:36:53;;;;;;;4.15;0.85;;;10.60;99.90;;;;;;5090903;28;20055;-74
2022/12/25 12:39:25;;;;;;;8.27;1.20;;;11.50;99.90;;;;;;5086736;28;20035;-72
2022/12/25 12:41:53;;;;;;;8.85;1.02;;;11.50;99.90;;;;;;5103275;28;20063;-73
2022/12/25 12:44:25;;;;;;;6.75;1.05;;;11.50;99.90;;;;;;5108635;28;20360;-72
2022/12/25 12:46:55;;;;;;;6.90;1.02;;;11.50;99.90;;;;;;5112396;28;20051;-76
2022/12/25 12:49:24;;;;;;;6.18;0.90;;;11.50;99.90;;;;;;5101719;28;20039;-74
2022/12/25 12:52:24;;;;;;;11.98;1.23;;;11.60;99.90;;;;;;5093639;28;20058;-75
2022/12/25 12:55:04;;;;;;;8.88;1.30;;;11.60;99.90;;;;;;5094774;28;20048;-73
2022/12/25 12:57:38;;;;;;;9.02;1.10;;;11.60;99.90;;;;;;5075794;28;20044;-73
2022/12/25 13:00:27;;;;;;;9.00;1.10;;;11.60;99.90;;;;;;5077297;28;20048;-73
2022/12/25 13:03:13;;;;;;;4.40;0.93;;;11.60;99.90;;;;;;5076822;28;20052;-75
2022/12/25 13:06:24;;;;;;;4.80;0.80;;;11.60;99.90;;;;;;5094055;28;20036;-74
2022/12/25 13:09:26;;;;;;;6.40;1.20;;;11.60;99.90;;;;;;5039801;28;20051;-74
2022/12/25 13:11:53;;;;;;;6.20;0.90;;;11.60;99.90;;;;;;5079653;28;20040;-75
2022/12/25 13:14:23;;;;;;;7.15;1.05;;;11.70;99.90;;;;;;5081355;28;20052;-75
2022/12/25 13:16:53;;;;;;;12.82;1.15;;;11.60;99.90;;;;;;5097535;28;20048;-74
2022/12/25 13:19:24;;;;;;;9.27;1.60;;;11.60;99.90;;;;;;5098673;28;20044;-73
2022/12/25 13:22:03;;;;;;;7.50;1.77;;;11.60;99.90;;;;;;5098282;28;20052;-75
2022/12/25 13:24:33;;;;;;;6.10;1.05;;;11.60;99.90;;;;;;5079478;28;20055;-74
2022/12/25 13:27:26;;;;;;;4.80;0.98;;;11.60;99.90;;;;;;5098336;28;20055;-73
2022/12/25 13:29:54;;;;;;;7.93;1.20;;;11.50;99.90;;;;;;5080803;28;20040;-74
2022/12/25 13:32:32;;;;;;;9.25;1.23;;;11.50;99.90;;;;;;5080210;28;20066;-74
2022/12/25 13:35:00;;;;;;;8.45;1.30;;;11.60;99.90;;;;;;5080277;28;20040;-73
2022/12/25 13:37:30;;;;;;;12.18;1.20;;;11.60;99.90;;;;;;5063433;28;20359;-72
2022/12/25 13:40:04;;;;;;;9.00;1.55;;;11.60;99.90;;;;;;5080771;28;20044;-74
2022/12/25 13:42:35;;;;;;;11.88;1.63;;;11.60;99.90;;;;;;5079733;28;20040;-72
2022/12/25 13:45:11;;;;;;;7.30;1.38;;;11.60;99.90;;;;;;5062662;28;20055;-72
2022/12/25 13:47:44;;;;;;;10.27;1.85;;;11.60;99.90;;;;;;5063157;28;20070;-74
2022/12/25 13:50:28;;;;;;;12.52;2.20;;;11.60;99.90;;;;;;5096575;28;20056;-72
2022/12/25 13:53:11;;;;;;;7.93;1.65;;;11.50;99.90;;;;;;5079720;28;20051;-73
2022/12/25 13:55:40;;;;;;;9.68;1.50;;;11.50;99.90;;;;;;5079729;28;20044;-73
2022/12/25 13:58:21;;;;;;;7.22;1.25;;;11.60;99.90;;;;;;5078422;28;20047;-74
2022/12/25 14:00:51;;;;;;;11.10;1.50;;;11.50;99.90;;;;;;5097109;28;20051;-73
2022/12/25 14:03:41;;;;;;;10.20;1.70;;;11.60;99.90;;;;;;5096403;28;20047;-74
2022/12/25 14:06:22;;;;;;;9.45;2.17;;;11.60;99.90;;;;;;5096873;28;20051;-73
2022/12/25 14:08:51;;;;;;;9.68;1.70;;;11.50;99.90;;;;;;5097130;28;20044;-74
2022/12/25 14:11:22;;;;;;;8.68;1.77;;;11.50;99.90;;;;;;5095962;28;20040;-74
2022/12/25 14:13:55;;;;;;;10.75;2.10;;;11.40;99.90;;;;;;5097004;28;20048;-72
2022/12/25 14:16:24;;;;;;;9.90;1.77;;;11.40;99.90;;;;;;5097016;28;20066;-74
2022/12/25 14:18:58;;;;;;;12.20;2.13;;;11.30;99.90;;;;;;5078137;28;20048;-73
2022/12/25 14:21:35;;;;;;;7.35;1.75;;;11.30;99.90;;;;;;5096767;28;20055;-72
2022/12/25 14:24:03;;;;;;;6.97;1.52;;;11.30;99.90;;;;;;5098783;28;20040;-73
2022/12/25 14:26:31;;;;;;;;;;;11.30;99.90;;;;;;5089950;28;20039;-73
2022/12/25 14:29:06;;;;;;;7.82;2.00;;;11.30;99.90;;;;;;5111633;28;19920;-71
2022/12/25 14:31:39;;;;;;;6.80;1.50;;;11.20;99.90;;;;;;5099368;28;20055;-71
2022/12/25 14:34:20;;;;;;;7.40;1.67;;;11.30;99.90;;;;;;5117004;28;20054;-73
2022/12/25 14:36:49;;;;;;;8.63;1.80;;;11.30;99.90;;;;;;5109149;27;20044;-72
2022/12/25 14:39:29;;;;;;;6.68;1.77;;;11.20;99.90;;;;;;5096018;28;20056;-72
2022/12/25 14:41:57;;;;;;;7.20;1.50;;;11.30;99.90;;;;;;5061498;28;20036;-72
2022/12/25 14:44:35;;;;;;;9.13;1.40;;;11.30;99.90;;;;;;5095463;28;20577;-72
2022/12/25 14:47:19;;;;;;;5.03;1.35;;;11.30;99.90;;;;;;5096479;28;20043;-72
2022/12/25 14:49:47;;;;;;;5.55;1.58;;;11.30;99.90;;;;;;5078586;28;20468;-72
2022/12/25 14:52:28;;;;;;;6.55;1.30;;;11.10;99.90;;;;;;5077611;28;20063;-71
2022/12/25 14:55:03;;;;;;;7.30;1.30;;;11.20;99.90;;;;;;5045135;28;20062;-73
2022/12/25 14:57:37;;;;;;;9.25;1.83;;;11.20;99.90;;;;;;5095090;28;20052;-72
2022/12/25 15:00:30;;;;;;;5.53;1.38;;;11.40;99.90;;;;;;5096211;28;20122;-72